Time;durP1;ratioP1;P1;durP2;ratioP2;P2;SDS_P1;SDS_P2;PMS_P1;PMS_P2;Temp;Humidity;BMP_temperature;BMP_pressure;BME280_temperature;BME280_humidity;BME280_pressure;Samples;Min_cycle;Max_cycle;Signal;HPM_P1;HPM_P2
2021/11/06 00:00:30;;;;;;;22.55;2.58;;;;;;;;;;5044794;28;20028;-37
2021/11/06 00:02:57;;;;;;;12.98;1.95;;;;;;;;;;5040988;28;20555;-36
2021/11/06 00:05:24;;;;;;;22.38;2.80;;;;;;;;;;5034264;28;20031;-37
2021/11/06 00:07:51;;;;;;;21.63;2.97;;;;;;;;;;5039418;28;20025;-39
2021/11/06 00:10:19;;;;;;;17.48;2.63;;;;;;;;;;5042493;28;20424;-40
2021/11/06 00:12:47;;;;;;;19.73;2.42;;;;;;;;;;5038309;28;20025;-40
2021/11/06 00:15:14;;;;;;;23.27;3.63;;;;;;;;;;5043638;28;20025;-42
2021/11/06 00:17:42;;;;;;;22.27;2.65;;;;;;;;;;5037195;28;20033;-44
2021/11/06 00:20:10;;;;;;;21.00;3.10;;;;;;;;;;5036276;28;20027;-42
2021/11/06 00:22:38;;;;;;;22.08;2.83;;;;;;;;;;5028810;28;20028;-43
2021/11/06 00:25:06;;;;;;;15.25;2.85;;;;;;;;;;5029765;28;20571;-39
2021/11/06 00:27:33;;;;;;;20.52;3.17;;;;;;;;;;5028288;28;20022;-40
2021/11/06 00:30:00;;;;;;;12.63;2.40;;;;;;;;;;5040310;28;20056;-41
2021/11/06 00:32:28;;;;;;;17.98;2.85;;;;;;;;;;5048204;28;20060;-41
2021/11/06 00:34:55;;;;;;;20.35;2.55;;;;;;;;;;5040525;28;20501;-38
2021/11/06 00:37:22;;;;;;;16.30;2.50;;;;;;;;;;5042101;28;20017;-43
2021/11/06 00:39:49;;;;;;;17.73;3.13;;;;;;;;;;5037714;28;20036;-39
2021/11/06 00:42:16;;;;;;;13.00;2.55;;;;;;;;;;5031688;28;20028;-43
2021/11/06 00:44:43;;;;;;;20.48;2.45;;;;;;;;;;5033113;28;20017;-43
2021/11/06 00:47:11;;;;;;;18.40;2.42;;;;;;;;;;5034505;28;20117;-42
2021/11/06 00:49:38;;;;;;;13.93;2.83;;;;;;;;;;5032643;28;20017;-41
2021/11/06 00:52:05;;;;;;;13.80;2.25;;;;;;;;;;5035631;28;20423;-38
2021/11/06 00:54:33;;;;;;;11.68;1.90;;;;;;;;;;5037747;28;20022;-40
2021/11/06 00:57:00;;;;;;;19.23;3.08;;;;;;;;;;5035068;28;20558;-39
2021/11/06 00:59:27;;;;;;;11.10;2.47;;;;;;;;;;5035754;28;20061;-41
2021/11/06 01:01:54;;;;;;;14.10;2.42;;;;;;;;;;5038538;28;20037;-42
2021/11/06 01:04:21;;;;;;;12.38;2.30;;;;;;;;;;5038172;28;20017;-41
2021/11/06 01:06:48;;;;;;;16.45;2.83;;;;;;;;;;5035397;28;20021;-38
2021/11/06 01:09:15;;;;;;;18.48;3.00;;;;;;;;;;5033398;28;20131;-36
2021/11/06 01:11:42;;;;;;;24.35;4.38;;;;;;;;;;5038745;28;20044;-38
2021/11/06 01:14:09;;;;;;;15.93;4.15;;;;;;;;;;5032187;28;20075;-38
2021/11/06 01:16:36;;;;;;;20.60;5.45;;;;;;;;;;5035706;28;20020;-40
2021/11/06 01:19:03;;;;;;;22.23;6.65;;;;;;;;;;5034951;28;20033;-37
2021/11/06 01:21:30;;;;;;;25.73;8.60;;;;;;;;;;5034189;28;20109;-40
2021/11/06 01:23:57;;;;;;;29.77;12.45;;;;;;;;;;5034329;28;20061;-39
2021/11/06 01:26:25;;;;;;;39.80;16.90;;;;;;;;;;5036778;28;20029;-38
2021/11/06 01:28:52;;;;;;;52.22;20.13;;;;;;;;;;5033079;28;20037;-37
2021/11/06 01:31:19;;;;;;;64.60;25.23;;;;;;;;;;5036471;28;20551;-37
2021/11/06 01:33:47;;;;;;;58.60;26.92;;;;;;;;;;5032910;28;20493;-38
2021/11/06 01:36:14;;;;;;;61.00;29.05;;;;;;;;;;5031340;28;20013;-38
2021/11/06 01:38:43;;;;;;;61.58;27.48;;;;;;;;;;5033867;28;20091;-40
2021/11/06 01:41:10;;;;;;;62.47;29.30;;;;;;;;;;5035705;28;20034;-38
2021/11/06 01:43:38;;;;;;;69.03;29.67;;;;;;;;;;5044170;28;20120;-39
2021/11/06 01:46:06;;;;;;;62.65;28.63;;;;;;;;;;5039041;28;20056;-40
2021/11/06 01:48:33;;;;;;;64.38;29.02;;;;;;;;;;5038605;28;20465;-41
2021/11/06 01:51:01;;;;;;;55.90;27.67;;;;;;;;;;5035230;28;20104;-39
2021/11/06 01:53:28;;;;;;;66.03;28.08;;;;;;;;;;5033476;28;20026;-40
2021/11/06 01:55:55;;;;;;;65.78;27.73;;;;;;;;;;5029797;28;20032;-41
2021/11/06 01:58:23;;;;;;;55.92;26.98;;;;;;;;;;5032789;28;20045;-37
2021/11/06 02:00:51;;;;;;;52.47;25.65;;;;;;;;;;5038090;28;20057;-41
2021/11/06 02:03:18;;;;;;;50.13;26.92;;;;;;;;;;5028782;28;20100;-37
2021/11/06 02:05:45;;;;;;;57.00;26.00;;;;;;;;;;5031072;28;20032;-39
2021/11/06 02:08:13;;;;;;;54.90;24.38;;;;;;;;;;5033820;28;20576;-35
2021/11/06 02:10:41;;;;;;;58.65;25.65;;;;;;;;;;5029713;28;20029;-38
2021/11/06 02:13:09;;;;;;;48.33;23.00;;;;;;;;;;5032525;28;20444;-36
2021/11/06 02:15:36;;;;;;;49.85;24.50;;;;;;;;;;5031804;28;20100;-38
2021/11/06 02:18:04;;;;;;;48.35;23.45;;;;;;;;;;5033277;28;20022;-37
2021/11/06 02:20:31;;;;;;;44.17;22.10;;;;;;;;;;5030969;28;20408;-39
2021/11/06 02:22:58;;;;;;;46.33;21.67;;;;;;;;;;5031542;28;20026;-40
2021/11/06 02:25:25;;;;;;;47.85;21.80;;;;;;;;;;5030722;28;20033;-38
2021/11/06 02:27:53;;;;;;;49.60;22.48;;;;;;;;;;5029752;28;20041;-37
2021/11/06 02:30:20;;;;;;;44.25;20.63;;;;;;;;;;5028906;28;20037;-37
2021/11/06 02:32:52;;;;;;;49.30;21.95;;;;;;;;;;5029827;28;20128;-38
2021/11/06 02:35:19;;;;;;;;;;;;;;;;;;5036349;28;20128;-38
2021/11/06 02:37:46;;;;;;;43.33;19.67;;;;;;;;;;5044123;28;20248;-37
2021/11/06 02:40:13;;;;;;;41.78;18.88;;;;;;;;;;5045403;28;20082;-36
2021/11/06 02:42:41;;;;;;;40.75;19.67;;;;;;;;;;5043016;28;20105;-38
2021/11/06 02:45:10;;;;;;;40.72;18.50;;;;;;;;;;5047770;28;20179;-36
2021/11/06 02:47:37;;;;;;;36.72;17.80;;;;;;;;;;5044376;28;20087;-37
2021/11/06 02:50:04;;;;;;;42.60;17.88;;;;;;;;;;5042290;28;20107;-37
2021/11/06 02:52:32;;;;;;;39.90;18.17;;;;;;;;;;5043694;28;20100;-36
2021/11/06 02:54:59;;;;;;;34.08;17.17;;;;;;;;;;5043584;28;20155;-38
2021/11/06 02:57:27;;;;;;;35.13;16.90;;;;;;;;;;5040625;28;20477;-37
2021/11/06 02:59:55;;;;;;;33.83;17.13;;;;;;;;;;5044554;28;20119;-36
2021/11/06 03:02:24;;;;;;;46.28;15.55;;;;;;;;;;5041661;28;20531;-37
2021/11/06 03:04:53;;;;;;;32.28;15.95;;;;;;;;;;5035458;28;20055;-35
2021/11/06 03:07:21;;;;;;;34.75;15.32;;;;;;;;;;5042387;28;20080;-37
2021/11/06 03:09:50;;;;;;;31.65;13.95;;;;;;;;;;5050785;28;20190;-37
2021/11/06 03:12:24;;;;;;;30.67;14.27;;;;;;;;;;5044216;28;20142;-38
2021/11/06 03:14:52;;;;;;;36.53;14.82;;;;;;;;;;5045084;28;20025;-37
2021/11/06 03:17:20;;;;;;;31.10;13.18;;;;;;;;;;5047009;28;20512;-37
2021/11/06 03:19:49;;;;;;;35.63;13.02;;;;;;;;;;5049377;28;20037;-37
2021/11/06 03:22:17;;;;;;;29.48;13.95;;;;;;;;;;5043703;28;20629;-37
2021/11/06 03:24:46;;;;;;;31.92;13.57;;;;;;;;;;5044096;28;20033;-36
2021/11/06 03:27:14;;;;;;;27.80;12.73;;;;;;;;;;5040189;28;20017;-38
2021/11/06 03:29:42;;;;;;;29.13;12.93;;;;;;;;;;5047026;28;20090;-35
2021/11/06 03:32:10;;;;;;;29.17;12.30;;;;;;;;;;5045415;28;20086;-43
2021/11/06 03:34:38;;;;;;;27.67;11.90;;;;;;;;;;5045125;28;20036;-37
2021/11/06 03:37:07;;;;;;;27.65;11.75;;;;;;;;;;5046808;28;20053;-34
2021/11/06 03:39:35;;;;;;;32.65;12.52;;;;;;;;;;5043042;28;20037;-35
2021/11/06 03:42:06;;;;;;;24.90;11.43;;;;;;;;;;5047514;28;20113;-36
2021/11/06 03:44:34;;;;;;;24.80;11.10;;;;;;;;;;5044998;28;20492;-36
2021/11/06 03:47:02;;;;;;;25.25;10.65;;;;;;;;;;5048032;28;20029;-37
2021/11/06 03:49:29;;;;;;;29.92;11.65;;;;;;;;;;5043731;28;20103;-36
2021/11/06 03:51:56;;;;;;;19.55;9.63;;;;;;;;;;5043309;28;20029;-36
2021/11/06 03:54:24;;;;;;;25.45;10.43;;;;;;;;;;5045117;28;20021;-37
2021/11/06 03:56:52;;;;;;;20.42;10.02;;;;;;;;;;5042935;28;20492;-40
2021/11/06 03:59:20;;;;;;;22.65;9.13;;;;;;;;;;5043317;28;20033;-37
2021/11/06 04:01:47;;;;;;;21.48;9.15;;;;;;;;;;5045963;28;20485;-33
2021/11/06 04:04:15;;;;;;;20.75;9.48;;;;;;;;;;5047974;28;20087;-36
2021/11/06 04:06:42;;;;;;;21.60;9.45;;;;;;;;;;5047431;28;20013;-38
2021/11/06 04:09:10;;;;;;;22.70;8.68;;;;;;;;;;5040423;28;20045;-36
2021/11/06 04:11:39;;;;;;;20.15;9.02;;;;;;;;;;5042233;28;20104;-37
2021/11/06 04:14:08;;;;;;;20.08;8.93;;;;;;;;;;5039976;28;20148;-37
2021/11/06 04:16:37;;;;;;;20.55;8.35;;;;;;;;;;5045623;28;20044;-37
2021/11/06 04:19:05;;;;;;;22.48;8.05;;;;;;;;;;5042592;28;20551;-36
2021/11/06 04:21:34;;;;;;;18.90;8.07;;;;;;;;;;5045808;28;20025;-38
2021/11/06 04:24:03;;;;;;;16.85;7.82;;;;;;;;;;5044005;28;20037;-33
2021/11/06 04:26:31;;;;;;;17.23;7.70;;;;;;;;;;5046117;28;20021;-36
2021/11/06 04:29:00;;;;;;;18.88;7.85;;;;;;;;;;5043455;28;20029;-34
2021/11/06 04:31:27;;;;;;;17.48;8.02;;;;;;;;;;5041754;28;20021;-40
2021/11/06 04:33:55;;;;;;;18.92;7.70;;;;;;;;;;5040386;28;20025;-37
2021/11/06 04:36:24;;;;;;;18.83;7.95;;;;;;;;;;5044517;28;20017;-37
2021/11/06 04:38:52;;;;;;;16.88;7.38;;;;;;;;;;5048450;28;20392;-36
2021/11/06 04:41:21;;;;;;;23.35;6.90;;;;;;;;;;5049170;28;20036;-39
2021/11/06 04:43:49;;;;;;;17.13;7.28;;;;;;;;;;5047328;28;20025;-38
2021/11/06 04:46:18;;;;;;;15.30;6.63;;;;;;;;;;5043347;28;20031;-39
2021/11/06 04:48:46;;;;;;;18.73;6.50;;;;;;;;;;5042544;28;20020;-37
2021/11/06 04:51:14;;;;;;;22.35;7.63;;;;;;;;;;5050023;28;20021;-37
2021/11/06 04:53:41;;;;;;;20.70;7.60;;;;;;;;;;5050392;28;20051;-35
2021/11/06 04:56:09;;;;;;;21.80;7.03;;;;;;;;;;5050876;28;20101;-37
2021/11/06 04:58:37;;;;;;;15.88;6.93;;;;;;;;;;5050743;28;20033;-38
2021/11/06 05:01:05;;;;;;;17.60;6.75;;;;;;;;;;5050971;28;20025;-37
2021/11/06 05:03:32;;;;;;;16.88;6.45;;;;;;;;;;5050917;28;20031;-39
2021/11/06 05:06:00;;;;;;;13.73;6.70;;;;;;;;;;5050764;28;20496;-36
2021/11/06 05:08:28;;;;;;;16.13;6.50;;;;;;;;;;5049717;28;20063;-35
2021/11/06 05:10:56;;;;;;;15.63;6.03;;;;;;;;;;5051078;28;20103;-37
2021/11/06 05:13:24;;;;;;;16.30;6.10;;;;;;;;;;5049364;28;20037;-38
2021/11/06 05:15:51;;;;;;;15.43;6.10;;;;;;;;;;5049621;28;20091;-36
2021/11/06 05:18:20;;;;;;;12.45;6.15;;;;;;;;;;5051777;28;20051;-35
2021/11/06 05:20:48;;;;;;;12.75;6.38;;;;;;;;;;5054892;28;20021;-38
2021/11/06 05:23:15;;;;;;;12.95;6.25;;;;;;;;;;5054554;28;20084;-38
2021/11/06 05:25:46;;;;;;;14.32;6.85;;;;;;;;;;5054681;28;20036;-38
2021/11/06 05:28:13;;;;;;;13.40;5.57;;;;;;;;;;5041903;28;20087;-40
2021/11/06 05:30:41;;;;;;;13.75;6.20;;;;;;;;;;5034069;28;20393;-40
2021/11/06 05:33:08;;;;;;;12.32;6.32;;;;;;;;;;5034402;28;20025;-41
2021/11/06 05:35:35;;;;;;;14.82;6.47;;;;;;;;;;5044920;28;20009;-41
2021/11/06 05:38:02;;;;;;;10.35;5.22;;;;;;;;;;5052316;28;20514;-41
2021/11/06 05:40:30;;;;;;;12.40;5.63;;;;;;;;;;5053064;28;20029;-39
2021/11/06 05:42:57;;;;;;;13.38;5.88;;;;;;;;;;5053299;28;20021;-39
2021/11/06 05:45:25;;;;;;;13.18;5.72;;;;;;;;;;5054459;28;20032;-41
2021/11/06 05:47:52;;;;;;;11.85;5.30;;;;;;;;;;5054384;28;20024;-41
2021/11/06 05:50:19;;;;;;;11.25;4.90;;;;;;;;;;5054402;28;20017;-41
2021/11/06 05:52:46;;;;;;;11.90;5.47;;;;;;;;;;5054442;28;20025;-42
2021/11/06 05:55:15;;;;;;;12.85;5.68;;;;;;;;;;5054036;28;20021;-41
2021/11/06 05:57:42;;;;;;;12.00;5.90;;;;;;;;;;5054375;28;20025;-41
2021/11/06 06:00:11;;;;;;;9.18;5.05;;;;;;;;;;5054243;28;20025;-41
2021/11/06 06:02:39;;;;;;;10.18;5.15;;;;;;;;;;5054100;28;20484;-41
2021/11/06 06:05:08;;;;;;;12.00;5.40;;;;;;;;;;5054140;28;20031;-41
2021/11/06 06:07:35;;;;;;;8.65;4.57;;;;;;;;;;5054028;28;20035;-41
2021/11/06 06:10:04;;;;;;;10.80;5.18;;;;;;;;;;5053535;28;20045;-41
2021/11/06 06:12:31;;;;;;;13.65;5.25;;;;;;;;;;5053906;28;20449;-41
2021/11/06 06:14:58;;;;;;;15.60;5.13;;;;;;;;;;5053913;28;20025;-41
2021/11/06 06:17:25;;;;;;;11.40;4.97;;;;;;;;;;5053899;28;20056;-41
2021/11/06 06:19:52;;;;;;;11.38;5.10;;;;;;;;;;5053711;28;20036;-41
2021/11/06 06:22:19;;;;;;;10.15;4.88;;;;;;;;;;5053985;28;20021;-41
2021/11/06 06:24:46;;;;;;;8.63;4.53;;;;;;;;;;5053457;28;20083;-40
2021/11/06 06:27:13;;;;;;;12.40;5.38;;;;;;;;;;5053580;28;20447;-40
2021/11/06 06:29:40;;;;;;;9.32;4.35;;;;;;;;;;5053252;28;20025;-42
2021/11/06 06:32:07;;;;;;;8.48;4.88;;;;;;;;;;5053445;28;20029;-40
2021/11/06 06:34:34;;;;;;;10.68;5.10;;;;;;;;;;5053394;28;20064;-41
2021/11/06 06:37:01;;;;;;;8.65;4.30;;;;;;;;;;5053698;28;20354;-41
2021/11/06 06:39:28;;;;;;;10.63;4.18;;;;;;;;;;5053013;28;20025;-41
2021/11/06 06:41:55;;;;;;;7.05;4.28;;;;;;;;;;5052166;28;20020;-41
2021/11/06 06:44:22;;;;;;;7.72;4.30;;;;;;;;;;5053586;28;20017;-41
2021/11/06 06:46:50;;;;;;;9.35;4.80;;;;;;;;;;5047794;28;20540;-38
2021/11/06 06:49:17;;;;;;;6.47;3.97;;;;;;;;;;5031674;28;20504;-41
2021/11/06 06:51:44;;;;;;;9.75;4.57;;;;;;;;;;5034623;28;20017;-39
2021/11/06 06:54:11;;;;;;;8.07;4.32;;;;;;;;;;5031675;28;20017;-40
2021/11/06 06:56:38;;;;;;;7.13;4.22;;;;;;;;;;5031724;28;20094;-40
2021/11/06 06:59:05;;;;;;;8.98;4.13;;;;;;;;;;5031619;28;20027;-38
2021/11/06 07:01:32;;;;;;;6.88;3.72;;;;;;;;;;5031636;28;20041;-38
2021/11/06 07:03:59;;;;;;;7.82;3.95;;;;;;;;;;5031388;28;20018;-41
2021/11/06 07:06:26;;;;;;;7.18;4.05;;;;;;;;;;5031072;28;20031;-40
2021/11/06 07:08:53;;;;;;;8.00;4.00;;;;;;;;;;5033828;28;20080;-37
2021/11/06 07:11:20;;;;;;;7.47;4.22;;;;;;;;;;5034030;28;20092;-39
2021/11/06 07:13:48;;;;;;;7.10;3.75;;;;;;;;;;5031312;28;20032;-39
2021/11/06 07:16:15;;;;;;;8.63;4.18;;;;;;;;;;5031083;28;20020;-41
2021/11/06 07:18:42;;;;;;;8.52;4.00;;;;;;;;;;5031028;28;20044;-38
2021/11/06 07:21:09;;;;;;;7.57;3.95;;;;;;;;;;5033799;28;20029;-39
2021/11/06 07:23:36;;;;;;;7.05;3.50;;;;;;;;;;5030931;28;20067;-41
2021/11/06 07:26:03;;;;;;;9.27;4.55;;;;;;;;;;5030802;28;20018;-40
2021/11/06 07:28:31;;;;;;;9.98;4.07;;;;;;;;;;5031172;28;20021;-41
2021/11/06 07:30:59;;;;;;;6.65;3.88;;;;;;;;;;5033829;28;20013;-39
2021/11/06 07:33:26;;;;;;;6.80;3.85;;;;;;;;;;5030655;28;20107;-37
2021/11/06 07:35:53;;;;;;;6.43;3.38;;;;;;;;;;5032479;28;20051;-37
2021/11/06 07:38:20;;;;;;;6.78;3.72;;;;;;;;;;5034023;28;20021;-39
2021/11/06 07:40:47;;;;;;;6.45;3.22;;;;;;;;;;5030739;28;20033;-41
2021/11/06 07:43:14;;;;;;;7.28;3.60;;;;;;;;;;5032584;28;20022;-40
2021/11/06 07:45:41;;;;;;;6.07;3.28;;;;;;;;;;5051565;28;20029;-41
2021/11/06 07:48:08;;;;;;;5.00;3.17;;;;;;;;;;5032462;28;20078;-40
2021/11/06 07:50:35;;;;;;;7.05;3.72;;;;;;;;;;5031032;28;20009;-41
2021/11/06 07:53:02;;;;;;;7.63;3.45;;;;;;;;;;5030748;28;20041;-40
2021/11/06 07:55:29;;;;;;;7.88;4.05;;;;;;;;;;5032912;28;20029;-40
2021/11/06 07:57:56;;;;;;;5.60;3.13;;;;;;;;;;5030605;28;20092;-41
2021/11/06 08:00:23;;;;;;;7.75;3.85;;;;;;;;;;5029313;28;20523;-41
2021/11/06 08:02:50;;;;;;;6.18;3.35;;;;;;;;;;5032321;28;20101;-38
2021/11/06 08:05:18;;;;;;;6.57;3.40;;;;;;;;;;5031178;28;20029;-40
2021/11/06 08:07:45;;;;;;;5.85;3.33;;;;;;;;;;5030503;28;20469;-40
2021/11/06 08:10:12;;;;;;;4.65;3.00;;;;;;;;;;5030283;28;20049;-38
2021/11/06 08:12:41;;;;;;;7.45;3.38;;;;;;;;;;5033032;28;20041;-41
2021/11/06 08:15:09;;;;;;;7.88;3.13;;;;;;;;;;5030464;28;20064;-40
2021/11/06 08:17:37;;;;;;;5.68;3.15;;;;;;;;;;5030383;28;20025;-38
2021/11/06 08:20:04;;;;;;;4.80;3.05;;;;;;;;;;5030357;28;20506;-39
2021/11/06 08:22:31;;;;;;;6.55;3.13;;;;;;;;;;5030377;28;20022;-40
2021/11/06 08:24:58;;;;;;;6.25;3.00;;;;;;;;;;5031076;28;20029;-40
2021/11/06 08:27:25;;;;;;;4.45;2.83;;;;;;;;;;5031468;28;20031;-40
2021/11/06 08:29:52;;;;;;;5.30;3.10;;;;;;;;;;5032033;28;20025;-39
2021/11/06 08:32:19;;;;;;;4.30;2.67;;;;;;;;;;5031867;28;20029;-39
2021/11/06 08:34:46;;;;;;;5.70;2.88;;;;;;;;;;5031768;28;20099;-39
2021/11/06 08:37:13;;;;;;;4.78;2.88;;;;;;;;;;5031855;28;20115;-41
2021/11/06 08:39:41;;;;;;;4.45;2.50;;;;;;;;;;5030356;28;20512;-40
2021/11/06 08:42:08;;;;;;;6.78;3.05;;;;;;;;;;5031702;28;20024;-41
2021/11/06 08:44:35;;;;;;;5.85;2.65;;;;;;;;;;5031857;28;20489;-41
2021/11/06 08:47:02;;;;;;;4.07;2.65;;;;;;;;;;5031556;28;20029;-41
2021/11/06 08:49:29;;;;;;;5.13;2.72;;;;;;;;;;5031669;28;20029;-41
2021/11/06 08:51:56;;;;;;;4.97;2.75;;;;;;;;;;5031575;28;20139;-41
2021/11/06 08:54:23;;;;;;;3.78;2.13;;;;;;;;;;5034194;28;20029;-41
2021/11/06 08:56:51;;;;;;;7.35;2.85;;;;;;;;;;5035412;28;20105;-41
2021/11/06 08:59:19;;;;;;;4.80;2.60;;;;;;;;;;5035477;28;20405;-41
2021/11/06 09:01:47;;;;;;;5.07;2.92;;;;;;;;;;5035459;28;20460;-41
2021/11/06 09:04:14;;;;;;;3.80;2.40;;;;;;;;;;5035204;28;20025;-39
2021/11/06 09:06:42;;;;;;;5.05;2.22;;;;;;;;;;5035318;28;20105;-40
2021/11/06 09:09:10;;;;;;;5.70;2.72;;;;;;;;;;5035222;28;20037;-39
2021/11/06 09:11:38;;;;;;;5.93;3.05;;;;;;;;;;5035230;28;20101;-41
2021/11/06 09:14:09;;;;;;;3.72;2.42;;;;;;;;;;5035166;28;20105;-38
2021/11/06 09:16:37;;;;;;;6.72;2.92;;;;;;;;;;5033876;28;20355;-41
2021/11/06 09:19:04;;;;;;;4.68;2.25;;;;;;;;;;5033417;28;20407;-41
2021/11/06 09:21:32;;;;;;;7.63;3.10;;;;;;;;;;5035120;28;20022;-41
2021/11/06 09:24:03;;;;;;;4.25;2.20;;;;;;;;;;5035161;28;20036;-41
2021/11/06 09:26:37;;;;;;;5.50;2.55;;;;;;;;;;5034942;28;20030;-39
2021/11/06 09:29:07;;;;;;;4.03;2.70;;;;;;;;;;5034761;28;20025;-38
2021/11/06 09:31:34;;;;;;;3.70;2.40;;;;;;;;;;5035097;28;20097;-41
2021/11/06 09:34:01;;;;;;;4.93;2.40;;;;;;;;;;5034908;28;20025;-41
2021/11/06 09:36:28;;;;;;;4.00;2.25;;;;;;;;;;5034577;28;20080;-41
2021/11/06 09:38:57;;;;;;;5.10;2.05;;;;;;;;;;5034545;28;20025;-42
2021/11/06 09:41:24;;;;;;;3.45;2.15;;;;;;;;;;5034781;28;20024;-41
2021/11/06 09:43:51;;;;;;;3.28;2.20;;;;;;;;;;5034561;28;20080;-41
2021/11/06 09:46:18;;;;;;;4.75;2.15;;;;;;;;;;5034419;28;20463;-41
2021/11/06 09:48:47;;;;;;;3.80;1.98;;;;;;;;;;5034744;28;20482;-41
2021/11/06 09:51:15;;;;;;;7.30;2.42;;;;;;;;;;5034568;28;20469;-41
2021/11/06 09:53:43;;;;;;;3.92;2.10;;;;;;;;;;5034369;28;20097;-40
2021/11/06 09:56:15;;;;;;;3.17;1.88;;;;;;;;;;5034601;28;20093;-42
2021/11/06 09:58:43;;;;;;;5.65;2.03;;;;;;;;;;5034368;28;20029;-42
2021/11/06 10:01:11;;;;;;;3.95;2.08;;;;;;;;;;5034235;28;20029;-41
2021/11/06 10:03:38;;;;;;;5.93;1.90;;;;;;;;;;5034344;28;20457;-41
2021/11/06 10:06:06;;;;;;;3.30;1.90;;;;;;;;;;5033387;28;20036;-41
2021/11/06 10:11:28;;;;;;;4.72;2.28;;;;;;;;;;5161124;22;20140;-36
2021/11/06 10:14:00;;;;;;;3.92;2.20;;;;;;;;;;5074238;28;20020;-36
2021/11/06 10:16:26;;;;;;;;;;;;;;;;;;5074569;28;20107;-35
2021/11/06 10:19:03;;;;;;;3.85;2.00;;;;;;;;;;5055806;28;19966;-37
2021/11/06 10:21:30;;;;;;;3.25;1.60;;;;;;;;;;5074011;28;20021;-36
2021/11/06 10:23:58;;;;;;;5.60;2.15;;;;;;;;;;5073666;28;20020;-35
2021/11/06 10:26:25;;;;;;;4.72;1.90;;;;;;;;;;5073752;28;20048;-36
2021/11/06 10:29:06;;;;;;;3.75;2.00;;;;;;;;;;5073462;28;20020;-36
2021/11/06 10:31:53;;;;;;;6.25;1.98;;;;;;;;;;5055788;28;20056;-36
2021/11/06 10:34:21;;;;;;;2.80;1.73;;;;;;;;;;5073251;28;20372;-36
2021/11/06 10:36:57;;;;;;;3.67;1.70;;;;;;;;;;5073631;28;20028;-36
2021/11/06 10:39:25;;;;;;;4.88;2.05;;;;;;;;;;5055240;28;20039;-36
2021/11/06 10:41:52;;;;;;;4.30;1.58;;;;;;;;;;5073368;28;20021;-35
2021/11/06 10:44:20;;;;;;;4.55;2.10;;;;;;;;;;5073472;28;20025;-36
2021/11/06 10:46:55;;;;;;;2.83;1.75;;;;;;;;;;5073264;28;20025;-36
2021/11/06 10:49:33;;;;;;;4.65;1.60;;;;;;;;;;5073158;28;20025;-36
2021/11/06 10:52:01;;;;;;;3.03;1.80;;;;;;;;;;5073022;28;20021;-34
2021/11/06 10:54:28;;;;;;;6.13;1.83;;;;;;;;;;5073325;28;20471;-36
2021/11/06 10:56:56;;;;;;;2.53;1.63;;;;;;;;;;5073313;28;20052;-36
2021/11/06 10:59:23;;;;;;;5.65;1.67;;;;;;;;;;5073044;28;20040;-35
2021/11/06 11:01:55;;;;;;;4.47;1.67;;;;;;;;;;5072926;28;20016;-36
2021/11/06 11:04:23;;;;;;;2.88;1.55;;;;;;;;;;5073168;28;20024;-35
2021/11/06 11:06:54;;;;;;;2.53;1.50;;;;;;;;;;5072762;28;20060;-35
2021/11/06 11:09:23;;;;;;;2.50;1.43;;;;;;;;;;5072528;28;20055;-36
2021/11/06 11:11:51;;;;;;;4.22;1.88;;;;;;;;;;5072985;28;20052;-36
2021/11/06 11:14:21;;;;;;;3.97;1.77;;;;;;;;;;5072669;28;20375;-36
2021/11/06 11:16:56;;;;;;;2.75;1.38;;;;;;;;;;5072598;28;20104;-36
2021/11/06 11:19:36;;;;;;;3.92;1.80;;;;;;;;;;5072433;28;20028;-36
2021/11/06 11:22:04;;;;;;;2.25;1.60;;;;;;;;;;5072576;28;20173;-35
2021/11/06 11:24:31;;;;;;;2.72;1.42;;;;;;;;;;5072481;28;20092;-36
2021/11/06 11:26:58;;;;;;;4.20;1.90;;;;;;;;;;5072487;28;20024;-36
2021/11/06 11:29:32;;;;;;;2.63;1.52;;;;;;;;;;5072186;28;20074;-36
2021/11/06 11:32:00;;;;;;;2.40;1.40;;;;;;;;;;5054459;28;20073;-35
2021/11/06 11:34:27;;;;;;;2.80;1.50;;;;;;;;;;5072210;28;20013;-35
2021/11/06 11:36:54;;;;;;;3.35;1.73;;;;;;;;;;5072280;28;20025;-35
2021/11/06 11:39:23;;;;;;;3.35;1.70;;;;;;;;;;5072296;28;20097;-35
2021/11/06 11:42:09;;;;;;;3.25;1.48;;;;;;;;;;5072396;28;20013;-36
2021/11/06 11:44:54;;;;;;;4.20;1.55;;;;;;;;;;5072401;28;20016;-36
2021/11/06 11:47:21;;;;;;;3.33;1.33;;;;;;;;;;5072419;28;20029;-35
2021/11/06 11:49:52;;;;;;;3.50;1.30;;;;;;;;;;5072217;28;20020;-36
2021/11/06 11:52:33;;;;;;;2.40;1.23;;;;;;;;;;5072236;28;20052;-36
2021/11/06 11:55:05;;;;;;;3.35;1.42;;;;;;;;;;5071960;28;20542;-37
2021/11/06 11:57:33;;;;;;;4.78;1.70;;;;;;;;;;5054399;28;20480;-36
2021/11/06 12:00:00;;;;;;;3.78;1.25;;;;;;;;;;5072052;28;20029;-36
2021/11/06 12:02:27;;;;;;;4.40;1.48;;;;;;;;;;5072152;28;20487;-36
2021/11/06 12:05:11;;;;;;;3.25;1.30;;;;;;;;;;5071994;28;20098;-36
2021/11/06 12:07:39;;;;;;;4.45;1.45;;;;;;;;;;5071970;28;20032;-35
2021/11/06 12:10:24;;;;;;;2.80;1.35;;;;;;;;;;5071573;28;20044;-35
2021/11/06 12:12:52;;;;;;;3.47;1.30;;;;;;;;;;5071901;28;20479;-36
2021/11/06 12:15:19;;;;;;;2.33;1.08;;;;;;;;;;5071876;28;20525;-35
2021/11/06 12:17:46;;;;;;;2.67;1.25;;;;;;;;;;5072152;28;20021;-36
2021/11/06 12:20:26;;;;;;;4.03;1.40;;;;;;;;;;5071410;28;20025;-36
2021/11/06 12:22:53;;;;;;;4.97;1.13;;;;;;;;;;5071800;28;20032;-35
2021/11/06 12:25:22;;;;;;;3.88;1.42;;;;;;;;;;5053740;28;20450;-36
2021/11/06 12:27:58;;;;;;;2.83;1.40;;;;;;;;;;5054079;28;20544;-36
2021/11/06 12:30:28;;;;;;;2.50;1.40;;;;;;;;;;5075952;28;20028;-36
2021/11/06 12:32:55;;;;;;;2.45;1.10;;;;;;;;;;5076127;28;20025;-37
2021/11/06 12:35:26;;;;;;;1.52;0.90;;;;;;;;;;5076017;28;20054;-36
2021/11/06 12:37:54;;;;;;;3.28;1.27;;;;;;;;;;5075975;28;20100;-36
2021/11/06 12:40:31;;;;;;;3.10;1.17;;;;;;;;;;5075888;28;20028;-36
2021/11/06 12:43:10;;;;;;;3.38;1.30;;;;;;;;;;5075741;28;20363;-36
2021/11/06 12:45:38;;;;;;;2.83;1.05;;;;;;;;;;5075617;28;20027;-36
2021/11/06 12:48:08;;;;;;;2.83;1.30;;;;;;;;;;5075799;28;20031;-36
2021/11/06 12:50:35;;;;;;;3.55;1.10;;;;;;;;;;5075835;28;20100;-36
2021/11/06 12:53:03;;;;;;;5.47;1.48;;;;;;;;;;5057593;28;20021;-36
2021/11/06 12:55:30;;;;;;;2.72;1.20;;;;;;;;;;5075511;28;20020;-36
2021/11/06 12:57:57;;;;;;;2.78;1.08;;;;;;;;;;5075425;28;20012;-36
2021/11/06 13:00:32;;;;;;;3.83;1.63;;;;;;;;;;5075473;28;20029;-36
2021/11/06 13:03:00;;;;;;;3.22;1.20;;;;;;;;;;5075427;28;20013;-37
2021/11/06 13:05:38;;;;;;;3.90;1.08;;;;;;;;;;5075458;28;20078;-35
2021/11/06 13:08:12;;;;;;;3.38;1.25;;;;;;;;;;5075403;28;20025;-35
2021/11/06 13:10:41;;;;;;;4.15;1.15;;;;;;;;;;5074728;28;20579;-35
2021/11/06 13:13:08;;;;;;;1.92;0.90;;;;;;;;;;5075233;28;20033;-37
2021/11/06 13:15:53;;;;;;;1.70;0.90;;;;;;;;;;5075326;28;20017;-36
2021/11/06 13:18:21;;;;;;;2.05;0.90;;;;;;;;;;5075135;28;20025;-36
2021/11/06 13:20:50;;;;;;;4.50;1.25;;;;;;;;;;5056898;28;20021;-36
2021/11/06 13:23:18;;;;;;;1.38;0.75;;;;;;;;;;5074933;28;20067;-35
2021/11/06 13:25:46;;;;;;;3.45;0.88;;;;;;;;;;5074957;28;20017;-37
2021/11/06 13:28:23;;;;;;;2.53;1.05;;;;;;;;;;5075106;28;20100;-37
2021/11/06 13:30:53;;;;;;;3.25;1.10;;;;;;;;;;5074903;28;20023;-37
2021/11/06 13:33:20;;;;;;;3.38;0.90;;;;;;;;;;5074200;28;20677;-35
2021/11/06 13:35:49;;;;;;;6.28;1.20;;;;;;;;;;5073732;28;20032;-35
2021/11/06 13:38:19;;;;;;;6.53;1.23;;;;;;;;;;5074615;28;20032;-36
2021/11/06 13:40:50;;;;;;;2.42;1.00;;;;;;;;;;5073235;28;20029;-36
2021/11/06 13:43:19;;;;;;;2.70;1.17;;;;;;;;;;5074545;28;20020;-36
2021/11/06 13:46:04;;;;;;;2.67;0.80;;;;;;;;;;5074850;28;20020;-36
2021/11/06 13:48:34;;;;;;;4.95;1.05;;;;;;;;;;5062355;28;20017;-36
2021/11/06 13:51:30;;;;;;;7.55;1.27;;;;;;;;;;5057784;28;20024;-34
2021/11/06 13:53:59;;;;;;;4.53;0.98;;;;;;;;;;5061830;28;20032;-34
2021/11/06 13:56:27;;;;;;;9.82;1.23;;;;;;;;;;5064903;28;20016;-35
2021/11/06 13:58:55;;;;;;;2.78;0.90;;;;;;;;;;5072356;28;20020;-34
2021/11/06 14:01:24;;;;;;;10.85;1.38;;;;;;;;;;5073772;28;20027;-34
2021/11/06 14:03:52;;;;;;;8.68;1.10;;;;;;;;;;5062804;28;20047;-35
2021/11/06 14:06:19;;;;;;;6.15;0.90;;;;;;;;;;5070834;28;20024;-35
2021/11/06 14:08:46;;;;;;;5.72;1.52;;;;;;;;;;5073129;28;20024;-34
2021/11/06 14:11:13;;;;;;;5.53;1.02;;;;;;;;;;5072704;28;20078;-35
2021/11/06 14:13:54;;;;;;;9.85;1.45;;;;;;;;;;5073145;28;20027;-35
2021/11/06 14:16:21;;;;;;;5.32;1.08;;;;;;;;;;5073005;28;20021;-34
2021/11/06 14:18:49;;;;;;;3.45;0.80;;;;;;;;;;5064357;28;20033;-35
2021/11/06 14:21:26;;;;;;;7.07;1.20;;;;;;;;;;5057232;28;20016;-34
2021/11/06 14:23:53;;;;;;;5.75;1.45;;;;;;;;;;5072195;28;20560;-34
2021/11/06 14:26:21;;;;;;;7.50;1.20;;;;;;;;;;5066894;28;20051;-34
2021/11/06 14:28:59;;;;;;;9.07;1.40;;;;;;;;;;5072329;28;20099;-34
2021/11/06 14:31:33;;;;;;;5.15;1.02;;;;;;;;;;5065932;28;20028;-35
2021/11/06 14:34:16;;;;;;;10.30;1.52;;;;;;;;;;5072343;28;20048;-34
2021/11/06 14:36:53;;;;;;;7.93;1.30;;;;;;;;;;5072799;28;20104;-35
2021/11/06 14:39:20;;;;;;;8.32;1.40;;;;;;;;;;5072122;28;20365;-35
2021/11/06 14:41:55;;;;;;;26.38;2.22;;;;;;;;;;5073233;28;20020;-35
2021/11/06 14:44:24;;;;;;;13.40;1.52;;;;;;;;;;5072924;28;20016;-34
2021/11/06 14:46:55;;;;;;;9.02;1.38;;;;;;;;;;5071875;28;20468;-35